createdAt,value
2019-02-25T00:00:06.078Z,18.00
2019-02-25T00:01:06.652Z,17.95
2019-02-25T00:02:07.229Z,18.01
2019-02-25T00:03:07.801Z,18.00
2019-02-25T00:04:08.379Z,17.95
2019-02-25T00:05:08.951Z,17.98
2019-02-25T00:06:09.526Z,18.01
2019-02-25T00:07:10.100Z,18.07
2019-02-25T00:08:10.677Z,17.97
2019-02-25T00:09:11.250Z,18.00
2019-02-25T00:10:11.841Z,18.01
2019-02-25T00:11:12.397Z,17.97
2019-02-25T00:12:12.971Z,17.89
2019-02-25T00:13:13.544Z,17.97
2019-02-25T00:14:14.118Z,18.00
2019-02-25T00:15:14.692Z,18.00
2019-02-25T00:16:15.316Z,17.97
2019-02-25T00:17:15.936Z,18.00
2019-02-25T00:18:16.509Z,18.00
2019-02-25T00:19:17.092Z,18.04
2019-02-25T00:20:17.666Z,18.00
2019-02-25T00:21:18.243Z,18.01
2019-02-25T00:22:18.868Z,17.90
2019-02-25T00:23:19.440Z,18.03
2019-02-25T00:24:20.015Z,17.98
2019-02-25T00:25:20.590Z,17.86
2019-02-25T00:26:21.168Z,18.04
2019-02-25T00:27:21.744Z,17.87
2019-02-25T00:28:22.320Z,17.87
2019-02-25T00:29:22.894Z,18.03
2019-02-25T00:30:23.519Z,17.98
2019-02-25T00:31:24.189Z,17.89
2019-02-25T00:32:24.764Z,17.97
2019-02-25T00:33:25.340Z,17.92
2019-02-25T00:34:25.965Z,17.90
2019-02-25T00:35:26.540Z,17.87
2019-02-25T00:36:27.117Z,17.89
2019-02-25T00:37:27.700Z,17.90
2019-02-25T00:38:28.273Z,17.87
2019-02-25T00:39:28.849Z,17.87
2019-02-25T00:40:29.422Z,17.86
2019-02-25T00:41:29.996Z,17.86
2019-02-25T00:42:30.570Z,17.86
2019-02-25T00:43:31.145Z,17.86
2019-02-25T00:44:31.719Z,17.80
2019-02-25T00:45:32.293Z,17.87
2019-02-25T00:46:32.869Z,17.87
2019-02-25T00:47:33.490Z,17.80
2019-02-25T00:48:34.065Z,17.87
2019-02-25T00:49:34.643Z,17.86
2019-02-25T00:50:35.228Z,17.87
2019-02-25T00:51:35.793Z,17.82
2019-02-25T00:52:36.367Z,17.89
2019-02-25T00:53:36.990Z,17.87
2019-02-25T00:54:37.564Z,17.85
2019-02-25T00:55:38.137Z,17.87
2019-02-25T00:56:38.710Z,17.85
2019-02-25T00:57:39.285Z,17.86
2019-02-25T00:58:39.860Z,17.87
2019-02-25T00:59:40.436Z,17.87
2019-02-25T01:00:41.009Z,17.85
2019-02-25T01:01:41.584Z,17.87
2019-02-25T01:02:42.159Z,17.95
2019-02-25T01:03:42.782Z,17.86
2019-02-25T01:04:43.358Z,17.86
2019-02-25T01:05:43.935Z,17.90
2019-02-25T01:06:44.511Z,17.89
2019-02-25T01:07:45.086Z,17.87
2019-02-25T01:08:45.661Z,17.82
2019-02-25T01:09:46.239Z,17.92
2019-02-25T01:10:46.857Z,17.89
2019-02-25T01:11:47.429Z,17.82
2019-02-25T01:12:48.053Z,17.90
2019-02-25T01:13:48.630Z,17.87
2019-02-25T01:14:49.205Z,17.85
2019-02-25T01:15:49.780Z,17.85
2019-02-25T01:16:50.354Z,17.85
2019-02-25T01:17:50.930Z,17.90
2019-02-25T01:18:51.553Z,17.85
2019-02-25T01:19:52.127Z,17.79
2019-02-25T01:20:52.700Z,17.83
2019-02-25T01:21:53.276Z,17.87
2019-02-25T01:22:53.851Z,17.86
2019-02-25T01:23:54.424Z,17.85
2019-02-25T01:24:55.052Z,17.83
2019-02-25T01:25:55.624Z,17.87
2019-02-25T01:26:56.201Z,17.85
2019-02-25T01:27:56.832Z,17.87
2019-02-25T01:28:57.362Z,17.79
2019-02-25T01:29:57.987Z,17.80
2019-02-25T01:30:58.627Z,17.79
2019-02-25T01:31:59.186Z,17.78
2019-02-25T01:32:59.763Z,17.82
2019-02-25T01:34:00.335Z,17.72
2019-02-25T01:35:00.960Z,17.72
2019-02-25T01:36:01.538Z,17.74
2019-02-25T01:37:02.112Z,17.72
2019-02-25T01:38:02.688Z,17.74
2019-02-25T01:39:03.264Z,17.72
2019-02-25T01:40:03.837Z,17.68
2019-02-25T01:41:04.563Z,17.68
2019-02-25T01:42:05.186Z,17.70
2019-02-25T01:43:05.762Z,17.65
2019-02-25T01:44:06.338Z,17.70
2019-02-25T01:45:06.964Z,17.60
2019-02-25T01:46:07.540Z,17.57
2019-02-25T01:47:08.114Z,17.64
2019-02-25T01:48:08.686Z,17.64
2019-02-25T01:49:09.259Z,17.63
2019-02-25T01:50:09.833Z,17.59
2019-02-25T01:51:10.408Z,17.60
2019-02-25T01:52:11.032Z,17.54
2019-02-25T01:53:11.622Z,17.59
2019-02-25T01:54:12.227Z,17.57
2019-02-25T01:55:12.799Z,17.60
2019-02-25T01:56:13.376Z,17.59
2019-02-25T01:57:13.951Z,17.60
2019-02-25T01:58:14.525Z,17.60
2019-02-25T01:59:15.149Z,17.63
2019-02-25T02:00:15.773Z,17.70
2019-02-25T02:01:16.349Z,17.70
2019-02-25T02:02:16.922Z,17.68
2019-02-25T02:03:17.499Z,17.71
2019-02-25T02:04:18.074Z,17.67
2019-02-25T02:05:18.653Z,17.68
2019-02-25T02:06:19.229Z,17.65
2019-02-25T02:07:19.799Z,17.74
2019-02-25T02:08:20.373Z,17.76
2019-02-25T02:09:20.948Z,17.76
2019-02-25T02:10:21.533Z,17.76
2019-02-25T02:11:22.191Z,17.72
2019-02-25T02:12:22.767Z,17.74
2019-02-25T02:13:23.344Z,17.72
2019-02-25T02:14:23.920Z,17.74
2019-02-25T02:15:24.494Z,17.70
2019-02-25T02:16:25.069Z,17.72
2019-02-25T02:17:25.644Z,17.72
2019-02-25T02:18:26.268Z,17.68
2019-02-25T02:19:26.844Z,17.70
2019-02-25T02:20:27.425Z,17.67
2019-02-25T02:21:27.996Z,17.63
2019-02-25T02:22:28.588Z,17.60
2019-02-25T02:23:29.145Z,17.63
2019-02-25T02:24:29.777Z,17.60
2019-02-25T02:25:30.341Z,17.63
2019-02-25T02:26:30.915Z,17.57
2019-02-25T02:27:31.491Z,17.51
2019-02-25T02:28:32.111Z,17.56
2019-02-25T02:29:32.682Z,17.52
2019-02-25T02:30:33.267Z,17.46
2019-02-25T02:31:33.832Z,17.52
2019-02-25T02:32:34.402Z,17.54
2019-02-25T02:33:34.975Z,17.51
2019-02-25T02:34:35.550Z,17.51
2019-02-25T02:35:36.124Z,17.48
2019-02-25T02:36:36.700Z,17.57
2019-02-25T02:37:37.273Z,17.54
2019-02-25T02:38:37.847Z,17.45
2019-02-25T02:39:38.422Z,17.51
2019-02-25T02:40:39.046Z,17.54
2019-02-25T02:41:39.621Z,17.52
2019-02-25T02:42:40.197Z,17.57
2019-02-25T02:43:40.771Z,17.51
2019-02-25T02:44:41.348Z,17.49
2019-02-25T02:45:41.923Z,17.51
2019-02-25T02:46:42.497Z,17.60
2019-02-25T02:47:43.121Z,17.49
2019-02-25T02:48:43.716Z,17.60
2019-02-25T02:49:44.318Z,17.57
2019-02-25T02:50:44.891Z,17.54
2019-02-25T02:51:45.470Z,17.49
2019-02-25T02:52:46.842Z,17.52
2019-02-25T02:53:47.416Z,17.59
2019-02-25T02:54:47.993Z,17.54
2019-02-25T02:55:48.629Z,17.54
2019-02-25T02:56:49.193Z,17.48
2019-02-25T02:57:49.769Z,17.52
2019-02-25T02:58:50.341Z,17.59
2019-02-25T02:59:50.914Z,17.46
2019-02-25T03:00:51.488Z,17.56
2019-02-25T03:01:52.065Z,17.52
2019-02-25T03:02:52.634Z,17.48
2019-02-25T03:03:53.211Z,17.48
2019-02-25T03:04:53.787Z,17.44
2019-02-25T03:05:54.399Z,17.45
2019-02-25T03:06:55.024Z,17.56
2019-02-25T03:07:55.594Z,17.57
2019-02-25T03:08:56.170Z,17.52
2019-02-25T03:09:58.753Z,17.60
2019-02-25T03:10:58.361Z,17.48
2019-02-25T03:11:58.938Z,17.48
2019-02-25T03:12:59.514Z,17.44
2019-02-25T03:14:00.092Z,17.49
2019-02-25T03:15:00.667Z,17.46
2019-02-25T03:16:01.244Z,17.46
2019-02-25T03:17:01.816Z,17.45
2019-02-25T03:18:02.392Z,17.34
2019-02-25T03:19:02.965Z,17.44
2019-02-25T03:20:03.548Z,17.46
2019-02-25T03:21:04.157Z,17.34
2019-02-25T03:22:04.731Z,17.36
2019-02-25T03:23:05.305Z,17.42
2019-02-25T03:24:05.880Z,17.44
2019-02-25T03:25:06.453Z,17.42
2019-02-25T03:26:07.076Z,17.42
2019-02-25T03:27:07.703Z,17.46
2019-02-25T03:28:08.278Z,17.41
2019-02-25T03:29:08.852Z,17.41
2019-02-25T03:30:09.476Z,17.33
2019-02-25T03:31:10.041Z,17.30
2019-02-25T03:32:10.673Z,17.42
2019-02-25T03:33:11.241Z,17.46
2019-02-25T03:34:11.817Z,17.39
2019-02-25T03:35:12.391Z,17.34
2019-02-25T03:36:13.009Z,17.38
2019-02-25T03:37:13.583Z,17.39
2019-02-25T03:38:14.158Z,17.41
2019-02-25T03:39:14.737Z,17.42
2019-02-25T03:40:15.308Z,17.39
2019-02-25T03:41:15.924Z,17.38
2019-02-25T03:42:16.495Z,17.42
2019-02-25T03:43:17.071Z,17.39
2019-02-25T03:44:17.693Z,17.30
2019-02-25T03:45:18.315Z,17.29
2019-02-25T03:46:18.891Z,17.26
2019-02-25T03:47:19.465Z,17.29
2019-02-25T03:48:20.089Z,17.31
2019-02-25T03:49:20.671Z,17.31
2019-02-25T03:50:21.235Z,17.36
2019-02-25T03:52:23.379Z,17.45
2019-02-25T03:54:25.518Z,17.39
2019-02-25T03:57:29.230Z,17.44
2019-02-25T03:58:29.806Z,17.41
2019-02-25T03:59:30.381Z,17.39
2019-02-25T04:00:31.018Z,17.44
2019-02-25T04:01:31.578Z,17.46
2019-02-25T04:02:32.153Z,17.48
2019-02-25T04:03:32.728Z,17.45
2019-02-25T04:04:33.303Z,17.42
2019-02-25T04:05:33.930Z,17.49
2019-02-25T04:06:34.504Z,17.31
2019-02-25T04:07:35.081Z,17.45
2019-02-25T04:08:35.706Z,17.39
2019-02-25T04:09:36.278Z,17.42
2019-02-25T04:10:36.856Z,17.36
2019-02-25T04:11:37.431Z,17.42
2019-02-25T04:12:38.008Z,17.44
2019-02-25T04:13:38.580Z,17.41
2019-02-25T04:14:39.159Z,17.44
2019-02-25T04:15:39.779Z,17.41
2019-02-25T04:16:40.351Z,17.26
2019-02-25T04:17:40.926Z,17.33
2019-02-25T04:18:41.499Z,17.36
2019-02-25T04:19:42.075Z,17.31
2019-02-25T04:20:42.645Z,17.38
2019-02-25T04:21:43.218Z,17.34
2019-02-25T04:22:43.792Z,17.27
2019-02-25T04:23:44.364Z,17.34
2019-02-25T04:24:44.938Z,17.24
2019-02-25T04:25:45.512Z,17.24
2019-02-25T04:26:46.085Z,17.29
2019-02-25T04:27:46.661Z,17.29
2019-02-25T04:28:47.234Z,17.24
2019-02-25T04:29:47.812Z,17.30
2019-02-25T04:30:48.396Z,17.27
2019-02-25T04:31:48.958Z,17.34
2019-02-25T04:32:49.534Z,17.24
2019-02-25T04:33:50.110Z,17.29
2019-02-25T04:34:50.692Z,17.31
2019-02-25T04:35:51.260Z,17.29
2019-02-25T04:36:51.885Z,17.31
2019-02-25T04:37:52.457Z,17.45
2019-02-25T04:38:53.032Z,17.36
2019-02-25T04:39:53.648Z,17.27
2019-02-25T04:40:54.222Z,17.27
2019-02-25T04:41:54.796Z,17.36
2019-02-25T04:42:55.372Z,17.27
2019-02-25T04:43:55.965Z,17.27
2019-02-25T04:44:56.561Z,17.33
2019-02-25T04:45:57.183Z,17.31
2019-02-25T04:46:57.808Z,17.31
2019-02-25T04:47:58.380Z,17.31
2019-02-25T04:48:58.954Z,17.39
2019-02-25T04:49:59.731Z,17.42
2019-02-25T04:51:00.306Z,17.41
2019-02-25T04:52:00.880Z,17.39
2019-02-25T04:53:01.455Z,17.31
2019-02-25T04:54:02.028Z,17.41
2019-02-25T04:55:02.657Z,17.44
2019-02-25T04:56:03.226Z,17.46
2019-02-25T04:57:03.800Z,17.36
2019-02-25T04:58:04.375Z,17.33
2019-02-25T04:59:04.948Z,17.39
2019-02-25T05:00:05.522Z,17.42
2019-02-25T05:01:06.095Z,17.44
2019-02-25T05:02:06.674Z,17.41
2019-02-25T05:03:07.295Z,17.30
2019-02-25T05:04:07.872Z,17.36
2019-02-25T05:05:08.445Z,17.38
2019-02-25T05:06:09.021Z,17.36
2019-02-25T05:07:09.595Z,17.30
2019-02-25T05:08:10.169Z,17.36
2019-02-25T05:09:10.743Z,17.36
2019-02-25T05:10:11.368Z,17.42
2019-02-25T05:11:11.943Z,17.38
2019-02-25T05:12:12.535Z,17.33
2019-02-25T05:13:13.094Z,17.31
2019-02-25T05:14:13.668Z,17.29
2019-02-25T05:15:14.302Z,17.36
2019-02-25T05:16:14.867Z,17.31
2019-02-25T05:17:15.448Z,17.39
2019-02-25T05:18:16.108Z,17.38
2019-02-25T05:19:16.681Z,17.36
2019-02-25T05:20:17.308Z,17.36
2019-02-25T05:21:17.881Z,17.41
2019-02-25T05:22:18.454Z,17.38
2019-02-25T05:23:19.027Z,17.38
2019-02-25T05:24:19.602Z,17.46
2019-02-25T05:25:20.174Z,17.42
2019-02-25T05:26:20.748Z,17.34
2019-02-25T05:27:21.322Z,17.39
2019-02-25T05:28:21.946Z,17.30
2019-02-25T05:29:22.521Z,17.38
2019-02-25T05:30:23.098Z,17.31
2019-02-25T05:31:23.671Z,17.36
2019-02-25T05:32:24.248Z,17.36
2019-02-25T05:33:24.822Z,17.39
2019-02-25T05:34:25.416Z,17.39
2019-02-25T05:35:26.123Z,17.45
2019-02-25T05:36:26.697Z,17.36
2019-02-25T05:37:27.273Z,17.39
2019-02-25T05:38:27.846Z,17.36
2019-02-25T05:39:28.419Z,17.44
2019-02-25T05:40:28.995Z,17.41
2019-02-25T05:41:29.568Z,17.39
2019-02-25T05:42:30.144Z,17.30
2019-02-25T05:43:30.718Z,17.38
2019-02-25T05:44:31.291Z,17.36
2019-02-25T05:45:31.917Z,17.46
2019-02-25T05:46:32.535Z,17.36
2019-02-25T05:47:33.114Z,17.41
2019-02-25T05:48:33.696Z,17.33
2019-02-25T05:49:34.303Z,17.27
2019-02-25T05:50:34.926Z,17.31
2019-02-25T05:51:35.502Z,17.27
2019-02-25T05:52:36.077Z,17.27
2019-02-25T05:53:36.700Z,17.36
2019-02-25T05:54:37.274Z,17.27
2019-02-25T05:55:37.855Z,17.34
2019-02-25T05:56:38.421Z,17.31
2019-02-25T05:57:38.995Z,17.31
2019-02-25T05:58:39.568Z,17.23
2019-02-25T05:59:40.143Z,17.23
2019-02-25T06:00:40.766Z,17.24
2019-02-25T06:01:41.342Z,17.26
2019-02-25T06:02:41.920Z,17.15
2019-02-25T06:03:42.492Z,17.29
2019-02-25T06:04:43.066Z,17.27
2019-02-25T06:05:43.642Z,17.09
2019-02-25T06:06:44.226Z,17.27
2019-02-25T06:07:44.797Z,17.20
2019-02-25T06:08:45.365Z,17.11
2019-02-25T06:09:45.940Z,17.20
2019-02-25T06:10:46.515Z,17.22
2019-02-25T06:11:47.090Z,17.11
2019-02-25T06:12:47.714Z,17.19
2019-02-25T06:13:48.289Z,17.22
2019-02-25T06:14:48.866Z,17.19
2019-02-25T06:15:51.339Z,17.08
2019-02-25T06:16:51.218Z,17.19
2019-02-25T06:17:51.786Z,17.22
2019-02-25T06:18:52.409Z,17.19
2019-02-25T06:19:52.987Z,17.27
2019-02-25T06:20:53.559Z,17.14
2019-02-25T06:21:54.135Z,17.23
2019-02-25T06:22:54.709Z,17.14
2019-02-25T06:23:55.283Z,17.15
2019-02-25T06:24:55.856Z,17.08
2019-02-25T06:25:56.683Z,17.24
2019-02-25T06:26:57.258Z,17.15
2019-02-25T06:27:57.882Z,17.22
2019-02-25T06:28:58.456Z,17.19
2019-02-25T06:29:59.036Z,17.11
2019-02-25T06:30:59.697Z,17.20
2019-02-25T06:32:00.321Z,17.22
2019-02-25T06:33:00.900Z,17.16
2019-02-25T06:34:01.470Z,17.14
2019-02-25T06:35:02.096Z,17.24
2019-02-25T06:36:02.667Z,17.11
2019-02-25T06:37:03.241Z,17.15
2019-02-25T06:38:03.838Z,17.20
2019-02-25T06:39:04.429Z,17.15
2019-02-25T06:40:05.004Z,17.19
2019-02-25T06:41:05.578Z,17.24
2019-02-25T06:42:06.156Z,17.22
2019-02-25T06:43:06.730Z,17.08
2019-02-25T06:44:07.304Z,17.22
2019-02-25T06:45:07.879Z,17.26
2019-02-25T06:46:08.459Z,17.09
2019-02-25T06:47:09.031Z,17.20
2019-02-25T06:48:09.604Z,17.15
2019-02-25T06:49:10.180Z,17.26
2019-02-25T06:50:10.752Z,17.16
2019-02-25T06:51:11.327Z,17.08
2019-02-25T06:52:11.954Z,17.19
2019-02-25T06:53:12.933Z,17.15
2019-02-25T06:54:13.559Z,17.12
2019-02-25T06:55:14.134Z,17.11
2019-02-25T06:56:14.708Z,17.08
2019-02-25T06:57:15.281Z,17.14
2019-02-25T06:58:15.853Z,17.09
2019-02-25T06:59:16.426Z,17.01
2019-02-25T07:00:17.001Z,17.09
2019-02-25T07:01:17.615Z,17.09
2019-02-25T07:02:18.190Z,17.14
2019-02-25T07:03:18.762Z,17.05
2019-02-25T07:04:19.336Z,17.09
2019-02-25T07:05:19.909Z,17.05
2019-02-25T07:06:20.495Z,17.02
2019-02-25T07:07:21.059Z,17.12
2019-02-25T07:08:21.675Z,17.12
2019-02-25T07:09:22.299Z,17.09
2019-02-25T07:10:22.872Z,17.04
2019-02-25T07:11:23.498Z,17.08
2019-02-25T07:12:24.074Z,17.04
2019-02-25T07:13:24.649Z,17.06
2019-02-25T07:14:25.274Z,17.05
2019-02-25T07:15:25.849Z,17.08
2019-02-25T07:16:26.427Z,17.09
2019-02-25T07:17:26.997Z,17.06
2019-02-25T07:18:27.572Z,17.04
2019-02-25T07:19:28.149Z,17.02
2019-02-25T07:20:28.721Z,17.02
2019-02-25T07:21:29.295Z,17.14
2019-02-25T07:22:29.870Z,17.11
2019-02-25T07:23:30.446Z,17.05
2019-02-25T07:24:31.063Z,17.02
2019-02-25T07:25:31.638Z,17.06
2019-02-25T07:26:32.262Z,17.05
2019-02-25T07:27:32.888Z,17.09
2019-02-25T07:28:33.461Z,17.05
2019-02-25T07:29:34.034Z,17.04
2019-02-25T07:30:34.610Z,17.09
2019-02-25T07:31:35.185Z,17.01
2019-02-25T07:32:35.761Z,17.08
2019-02-25T07:33:36.384Z,17.05
2019-02-25T07:34:37.009Z,16.99
2019-02-25T07:35:37.581Z,17.02
2019-02-25T07:36:38.156Z,17.05
2019-02-25T07:37:38.772Z,17.05
2019-02-25T07:38:40.021Z,16.99
2019-02-25T07:39:40.655Z,17.06
2019-02-25T07:40:41.266Z,17.05
2019-02-25T07:41:41.841Z,16.97
2019-02-25T07:42:42.413Z,17.06
2019-02-25T07:43:43.040Z,16.99
2019-02-25T07:44:43.617Z,16.99
2019-02-25T07:45:44.191Z,16.99
2019-02-25T07:46:44.769Z,17.01
2019-02-25T07:47:45.342Z,17.05
2019-02-25T07:48:45.967Z,16.99
2019-02-25T07:49:46.543Z,16.97
2019-02-25T07:52:02.533Z,16.96
2019-02-25T07:53:03.106Z,17.02
2019-02-25T07:54:03.684Z,16.99
2019-02-25T07:56:19.676Z,16.96
2019-02-25T07:57:20.250Z,16.97
2019-02-25T07:58:20.824Z,16.97
2019-02-25T07:59:21.399Z,16.99
2019-02-25T08:00:22.022Z,16.94
2019-02-25T08:01:22.599Z,16.97
2019-02-25T08:02:23.221Z,16.97
2019-02-25T08:03:23.796Z,16.97
2019-02-25T08:04:24.373Z,16.93
2019-02-25T08:05:24.944Z,16.94
2019-02-25T08:06:25.518Z,16.94
2019-02-25T08:07:26.092Z,16.94
2019-02-25T08:08:26.666Z,16.93
2019-02-25T08:09:27.289Z,16.90
2019-02-25T08:10:27.865Z,16.93
2019-02-25T08:11:28.439Z,16.90
2019-02-25T08:12:29.016Z,16.93
2019-02-25T08:13:29.644Z,16.96
2019-02-25T08:14:30.212Z,16.97
2019-02-25T08:15:30.785Z,17.05
2019-02-25T08:16:31.360Z,16.90
2019-02-25T08:17:31.936Z,16.90
2019-02-25T08:18:32.658Z,16.91
2019-02-25T08:19:33.232Z,16.87
2019-02-25T08:20:33.810Z,16.94
2019-02-25T08:21:34.388Z,16.90
2019-02-25T08:22:36.212Z,16.93
2019-02-25T08:23:36.788Z,16.90
2019-02-25T08:24:37.412Z,16.97
2019-02-25T08:25:37.987Z,16.99
2019-02-25T08:26:38.561Z,16.90
2019-02-25T08:27:39.132Z,17.02
2019-02-25T08:28:39.706Z,16.81
2019-02-25T08:29:40.280Z,16.96
2019-02-25T08:30:40.854Z,16.99
2019-02-25T08:31:41.477Z,16.90
2019-02-25T08:32:42.052Z,16.96
2019-02-25T08:33:42.630Z,16.90
2019-02-25T08:34:43.210Z,16.87
2019-02-25T08:35:43.781Z,16.96
2019-02-25T08:36:44.352Z,16.94
2019-02-25T08:37:44.977Z,16.93
2019-02-25T08:38:45.552Z,16.90
2019-02-25T08:39:46.129Z,16.84
2019-02-25T08:40:46.706Z,16.93
2019-02-25T08:41:47.280Z,16.99
2019-02-25T08:42:48.054Z,16.84
2019-02-25T08:43:48.630Z,16.94
2019-02-25T08:44:49.205Z,16.90
2019-02-25T08:45:49.783Z,16.76
2019-02-25T08:46:50.402Z,16.81
2019-02-25T08:47:50.975Z,16.79
2019-02-25T08:48:51.552Z,16.72
2019-02-25T08:49:52.330Z,16.74
2019-02-25T08:50:52.904Z,16.72
2019-02-25T08:51:53.480Z,16.68
2019-02-25T08:52:54.054Z,16.64
2019-02-25T08:53:54.681Z,16.57
2019-02-25T08:54:55.306Z,16.64
2019-02-25T08:55:55.884Z,16.74
2019-02-25T08:58:12.277Z,16.60
2019-02-25T08:59:12.849Z,16.65
2019-02-25T09:00:13.464Z,16.68
2019-02-25T09:01:15.486Z,16.69
2019-02-25T09:03:31.899Z,16.76
2019-02-25T09:04:32.472Z,16.71
2019-02-25T09:05:33.251Z,16.68
2019-02-25T09:07:49.245Z,16.69
2019-02-25T09:08:49.822Z,16.72
2019-02-25T09:09:50.396Z,16.79
2019-02-25T09:10:50.973Z,16.84
2019-02-25T09:11:51.551Z,16.76
2019-02-25T09:12:52.180Z,16.86
2019-02-25T09:13:52.751Z,16.90
2019-02-25T09:14:53.379Z,16.87
2019-02-25T09:15:53.955Z,16.87
2019-02-25T09:16:54.533Z,16.91
2019-02-25T09:17:55.158Z,16.93
2019-02-25T09:18:55.744Z,16.97
2019-02-25T09:19:57.038Z,16.94
2019-02-25T09:20:57.611Z,16.91
2019-02-25T09:21:58.186Z,16.94
2019-02-25T09:22:58.761Z,16.97
2019-02-25T09:23:59.382Z,16.96
2019-02-25T09:24:59.960Z,16.94
2019-02-25T09:26:00.534Z,16.99
2019-02-25T09:27:01.112Z,16.96
2019-02-25T09:28:01.685Z,17.02
2019-02-25T09:29:02.260Z,16.96
2019-02-25T09:30:02.884Z,17.02
2019-02-25T09:31:05.535Z,17.08
2019-02-25T09:32:05.079Z,16.99
2019-02-25T09:33:05.655Z,17.09
2019-02-25T09:34:06.279Z,17.05
2019-02-25T09:35:06.857Z,16.99
2019-02-25T09:36:07.426Z,17.04
2019-02-25T09:37:08.051Z,17.05
2019-02-25T09:38:08.627Z,17.06
2019-02-25T09:39:09.206Z,17.06
2019-02-25T09:40:09.779Z,17.06
2019-02-25T09:41:10.357Z,17.09
2019-02-25T09:42:10.931Z,17.04
2019-02-25T09:43:11.507Z,17.19
2019-02-25T09:44:12.081Z,17.15
2019-02-25T09:45:12.657Z,17.14
2019-02-25T09:46:13.234Z,17.14
2019-02-25T09:47:13.855Z,17.27
2019-02-25T09:48:14.430Z,17.29
2019-02-25T09:49:15.008Z,17.30
2019-02-25T09:50:15.632Z,17.29
2019-02-25T09:51:16.252Z,17.27
2019-02-25T09:52:16.829Z,17.33
2019-02-25T09:53:17.405Z,17.31
2019-02-25T09:54:17.991Z,17.31
2019-02-25T09:55:18.606Z,17.36
2019-02-25T09:56:19.182Z,17.45
2019-02-25T09:57:19.811Z,17.42
2019-02-25T09:58:20.383Z,17.44
2019-02-25T09:59:20.963Z,17.45
2019-02-25T10:00:21.578Z,17.45
2019-02-25T10:01:22.150Z,17.45
2019-02-25T10:02:24.766Z,17.42
2019-02-25T10:03:29.343Z,17.46
2019-02-25T10:04:29.919Z,17.48
2019-02-25T10:05:30.495Z,17.51
2019-02-25T10:06:31.112Z,17.54
2019-02-25T10:07:31.687Z,17.48
2019-02-25T10:08:32.311Z,17.45
2019-02-25T10:09:32.887Z,17.51
2019-02-25T10:10:33.465Z,17.45
2019-02-25T10:11:34.039Z,17.49
2019-02-25T10:12:34.654Z,17.49
2019-02-25T10:13:35.195Z,17.56
2019-02-25T10:14:35.764Z,17.57
2019-02-25T10:15:36.339Z,17.52
2019-02-25T10:16:36.914Z,17.59
2019-02-25T10:17:37.490Z,17.59
2019-02-25T10:18:38.117Z,17.60
2019-02-25T10:19:38.693Z,17.60
2019-02-25T10:20:39.268Z,17.60
2019-02-25T10:21:39.846Z,17.67
2019-02-25T10:22:40.419Z,17.65
2019-02-25T10:23:40.997Z,17.67
2019-02-25T10:24:41.575Z,17.70
2019-02-25T10:25:42.199Z,17.74
2019-02-25T10:26:42.774Z,17.65
2019-02-25T10:27:43.349Z,17.65
2019-02-25T10:28:43.925Z,17.70
2019-02-25T10:29:44.503Z,17.72
2019-02-25T10:30:52.623Z,17.72
2019-02-25T10:31:45.744Z,17.74
2019-02-25T10:32:46.317Z,17.71
2019-02-25T10:33:46.892Z,17.67
2019-02-25T10:34:47.467Z,17.74
2019-02-25T10:35:48.042Z,17.72
2019-02-25T10:36:50.193Z,17.74
2019-02-25T10:37:50.186Z,17.71
2019-02-25T10:38:50.763Z,17.74
2019-02-25T10:39:51.551Z,17.72
2019-02-25T10:40:53.851Z,17.71
2019-02-25T10:41:55.445Z,17.76
2019-02-25T10:42:55.249Z,17.80
2019-02-25T10:43:55.828Z,17.74
2019-02-25T10:44:56.402Z,17.86
2019-02-25T10:45:56.976Z,17.89
2019-02-25T10:46:57.601Z,17.85
2019-02-25T10:47:58.916Z,17.76
2019-02-25T10:49:04.951Z,17.87
2019-02-25T10:50:03.124Z,17.89
2019-02-25T10:51:04.759Z,17.90
2019-02-25T10:52:04.406Z,17.87
2019-02-25T10:53:04.981Z,17.83
2019-02-25T10:54:05.557Z,17.82
2019-02-25T10:55:06.187Z,17.92
2019-02-25T10:56:06.763Z,17.94
2019-02-25T10:57:07.336Z,17.95
2019-02-25T10:58:07.912Z,17.83
2019-02-25T10:59:08.542Z,17.98
2019-02-25T11:00:09.666Z,17.95
2019-02-25T11:01:13.376Z,18.01
2019-02-25T11:02:13.195Z,18.05
2019-02-25T11:03:14.772Z,17.95
2019-02-25T11:04:15.432Z,17.89
2019-02-25T11:05:16.007Z,18.29
2019-02-25T11:06:16.589Z,18.53
2019-02-25T11:07:17.167Z,18.65
2019-02-25T11:08:17.796Z,18.77
2019-02-25T11:09:18.382Z,18.93
2019-02-25T11:10:20.387Z,19.02
2019-02-25T11:11:22.551Z,19.26
2019-02-25T11:12:23.691Z,19.29
2019-02-25T11:13:25.410Z,19.37
2019-02-25T11:14:25.256Z,19.45
2019-02-25T11:15:25.839Z,19.52
2019-02-25T11:16:26.419Z,19.58
2019-02-25T11:17:27.063Z,19.63
2019-02-25T11:18:28.457Z,19.71
2019-02-25T11:19:30.621Z,19.84
2019-02-25T11:20:31.841Z,19.85
2019-02-25T11:21:32.912Z,19.86
2019-02-25T11:22:32.811Z,19.84
2019-02-25T11:23:33.392Z,20.02
2019-02-25T11:24:34.029Z,19.99
2019-02-25T11:25:34.614Z,20.00
2019-02-25T11:26:35.472Z,20.07
2019-02-25T11:27:37.724Z,20.02
2019-02-25T11:28:39.152Z,20.14
2019-02-25T11:29:40.522Z,20.14
2019-02-25T11:30:42.678Z,20.18
2019-02-25T11:31:42.328Z,20.14
2019-02-25T11:32:42.912Z,20.11
2019-02-25T11:33:43.497Z,20.10
2019-02-25T11:34:44.079Z,20.02
2019-02-25T11:35:45.770Z,20.04
2019-02-25T11:36:45.344Z,20.02
2019-02-25T11:37:45.916Z,19.96
2019-02-25T11:38:46.498Z,19.94
2019-02-25T11:39:47.081Z,19.99
2019-02-25T11:40:47.664Z,19.85
2019-02-25T11:41:48.248Z,19.89
2019-02-25T11:42:48.830Z,19.84
2019-02-25T11:43:52.257Z,19.82
2019-02-25T11:44:51.968Z,19.76
2019-02-25T11:45:52.616Z,19.74
2019-02-25T11:46:53.204Z,19.70
2019-02-25T11:47:53.786Z,19.73
2019-02-25T11:48:54.369Z,19.70
2019-02-25T11:49:54.960Z,19.55
2019-02-25T11:50:55.538Z,19.56
2019-02-25T11:51:56.121Z,19.51
2019-02-25T11:52:56.705Z,19.51
2019-02-25T11:53:59.391Z,19.49
2019-02-25T11:54:58.917Z,19.48
2019-02-25T11:55:59.541Z,19.44
2019-02-25T11:57:00.121Z,19.34
2019-02-25T11:58:00.700Z,19.36
2019-02-25T11:59:01.285Z,19.34
2019-02-25T12:00:01.867Z,19.27
2019-02-25T12:01:02.448Z,19.29
2019-02-25T12:02:03.080Z,19.29
2019-02-25T12:03:03.712Z,19.22
2019-02-25T12:04:04.347Z,19.19
2019-02-25T12:05:04.928Z,19.22
2019-02-25T12:06:05.510Z,19.24
2019-02-25T12:07:06.094Z,19.11
2019-02-25T12:08:06.728Z,19.15
2019-02-25T12:09:07.252Z,19.07
2019-02-25T12:10:07.835Z,19.00
2019-02-25T12:11:08.769Z,18.99
2019-02-25T12:12:09.319Z,18.88
2019-02-25T12:13:09.901Z,18.93
2019-02-25T12:14:10.482Z,18.93
2019-02-25T12:15:11.064Z,18.90
2019-02-25T12:16:11.643Z,18.90
2019-02-25T12:17:12.224Z,18.88
2019-02-25T12:18:12.847Z,18.90
2019-02-25T12:19:17.899Z,18.83
2019-02-25T12:20:15.003Z,18.80
2019-02-25T12:21:15.633Z,18.80
2019-02-25T12:22:16.214Z,18.89
2019-02-25T12:23:16.793Z,18.83
2019-02-25T12:24:17.378Z,18.84
2019-02-25T12:25:18.006Z,18.77
2019-02-25T12:26:18.587Z,18.77
2019-02-25T12:27:19.162Z,18.77
2019-02-25T12:28:19.791Z,18.75
2019-02-25T12:29:20.374Z,18.81
2019-02-25T12:30:21.153Z,18.77
2019-02-25T12:31:21.784Z,18.77
2019-02-25T12:32:22.362Z,18.73
2019-02-25T12:33:23.091Z,18.75
2019-02-25T12:34:23.681Z,18.75
2019-02-25T12:35:24.265Z,18.74
2019-02-25T12:36:24.829Z,18.73
2019-02-25T12:37:25.408Z,18.74
2019-02-25T12:38:26.038Z,18.78
2019-02-25T12:39:26.616Z,18.75
2019-02-25T12:40:27.197Z,18.74
2019-02-25T12:41:27.779Z,18.75
2019-02-25T12:42:28.358Z,18.73
2019-02-25T12:43:28.938Z,18.74
2019-02-25T12:44:29.517Z,18.75
2019-02-25T12:45:30.098Z,18.73
2019-02-25T12:46:30.678Z,18.77
2019-02-25T12:47:31.257Z,18.77
2019-02-25T12:48:31.837Z,18.74
2019-02-25T12:49:32.466Z,18.74
2019-02-25T12:50:33.048Z,18.74
2019-02-25T12:51:33.678Z,18.77
2019-02-25T12:52:34.263Z,18.75
2019-02-25T12:53:34.992Z,18.73
2019-02-25T12:54:35.615Z,18.81
2019-02-25T12:55:36.192Z,18.75
2019-02-25T12:56:36.774Z,18.78
2019-02-25T12:57:37.352Z,18.73
2019-02-25T12:58:37.932Z,18.74
2019-02-25T12:59:38.512Z,18.75
2019-02-25T13:00:39.090Z,18.80
2019-02-25T13:01:39.671Z,18.77
2019-02-25T13:02:40.251Z,18.73
2019-02-25T13:03:40.871Z,18.74
2019-02-25T13:04:41.450Z,18.58
2019-02-25T13:05:42.027Z,18.63
2019-02-25T13:06:42.658Z,18.58
2019-02-25T13:07:43.234Z,18.60
2019-02-25T13:08:43.812Z,18.66
2019-02-25T13:09:44.389Z,18.56
2019-02-25T13:10:44.973Z,18.53